createdAt,value
2023-05-18T00:00:04.120Z,94.60
2023-05-18T00:02:31.849Z,94.60
2023-05-18T00:05:02.236Z,94.60
2023-05-18T00:07:37.422Z,94.70
2023-05-18T00:10:04.592Z,95.00
2023-05-18T00:12:33.965Z,94.80
2023-05-18T00:15:00.948Z,94.80
2023-05-18T00:17:28.032Z,94.80
2023-05-18T00:20:01.041Z,94.80
2023-05-18T00:22:28.293Z,94.90
2023-05-18T00:24:55.192Z,95.00
2023-05-18T00:27:22.183Z,95.00
2023-05-18T00:29:49.174Z,95.10
2023-05-18T00:32:18.264Z,95.30
2023-05-18T00:34:45.202Z,95.30
2023-05-18T00:37:14.034Z,95.30
2023-05-18T00:39:41.054Z,95.20
2023-05-18T00:42:07.978Z,95.00
2023-05-18T00:44:34.945Z,94.90
2023-05-18T00:47:03.882Z,94.80
2023-05-18T00:49:30.801Z,94.80
2023-05-18T00:51:59.811Z,94.80
2023-05-18T00:54:26.776Z,94.80
2023-05-18T00:56:53.806Z,94.80
2023-05-18T00:59:20.760Z,94.70
2023-05-18T01:01:48.629Z,94.70
2023-05-18T01:04:15.506Z,94.70
2023-05-18T01:06:43.689Z,94.70
2023-05-18T01:09:13.986Z,94.90
2023-05-18T01:11:48.312Z,95.00
2023-05-18T01:14:17.980Z,95.10
2023-05-18T01:16:55.042Z,95.20
2023-05-18T01:19:49.831Z,95.30
2023-05-18T01:22:23.224Z,95.40
2023-05-18T01:24:59.139Z,95.40
2023-05-18T01:27:26.645Z,95.50
2023-05-18T01:29:56.024Z,95.50
2023-05-18T01:32:23.376Z,95.60
2023-05-18T01:34:51.821Z,95.70
2023-05-18T01:37:21.295Z,95.70
2023-05-18T01:39:53.240Z,95.80
2023-05-18T01:42:28.021Z,95.90
2023-05-18T01:45:02.617Z,95.90
2023-05-18T01:47:33.355Z,95.90
2023-05-18T01:50:13.834Z,95.80
2023-05-18T01:53:14.723Z,95.70
2023-05-18T01:55:42.542Z,95.80
2023-05-18T01:58:12.439Z,95.80
2023-05-18T02:00:40.699Z,95.80
2023-05-18T02:03:07.827Z,95.90
2023-05-18T02:05:37.571Z,96.00
2023-05-18T02:08:05.076Z,96.00
2023-05-18T02:10:35.601Z,96.00
2023-05-18T02:13:02.751Z,96.00
2023-05-18T02:15:32.356Z,95.90
2023-05-18T02:17:59.411Z,95.90
2023-05-18T02:20:33.374Z,95.90
2023-05-18T02:23:00.844Z,96.00
2023-05-18T02:25:27.955Z,96.00
2023-05-18T02:27:59.169Z,96.10
2023-05-18T02:30:26.303Z,96.00
2023-05-18T02:32:55.542Z,96.00
2023-05-18T02:35:22.732Z,96.00
2023-05-18T02:37:50.210Z,96.00
2023-05-18T02:40:17.861Z,96.10
2023-05-18T02:42:47.321Z,96.40
2023-05-18T02:45:16.559Z,96.20
2023-05-18T02:47:45.147Z,96.30
2023-05-18T02:50:14.810Z,96.40
2023-05-18T02:52:45.557Z,96.50
2023-05-18T02:55:13.755Z,96.50
2023-05-18T02:57:57.451Z,96.50
2023-05-18T03:00:40.220Z,96.60
2023-05-18T03:03:11.198Z,96.50
2023-05-18T03:05:41.390Z,96.40
2023-05-18T03:08:10.577Z,96.40
2023-05-18T03:10:38.308Z,96.40
2023-05-18T03:13:05.254Z,96.40
2023-05-18T03:15:32.783Z,96.50
2023-05-18T03:18:00.208Z,96.60
2023-05-18T03:20:28.068Z,96.70
2023-05-18T03:22:55.016Z,96.80
2023-05-18T03:25:22.722Z,96.80
2023-05-18T03:27:49.732Z,96.90
2023-05-18T03:30:17.072Z,97.00
2023-05-18T03:32:46.353Z,97.00
2023-05-18T03:35:14.907Z,97.00
2023-05-18T03:37:42.654Z,97.00
2023-05-18T03:40:15.713Z,97.10
2023-05-18T03:42:44.736Z,97.20
2023-05-18T03:45:14.744Z,97.20
2023-05-18T03:47:43.240Z,97.20
2023-05-18T03:50:11.016Z,97.10
2023-05-18T03:52:39.669Z,97.00
2023-05-18T03:55:07.922Z,97.00
2023-05-18T03:57:34.907Z,97.00
2023-05-18T04:00:06.804Z,97.00
2023-05-18T04:02:47.436Z,97.10
2023-05-18T04:05:19.288Z,97.10
2023-05-18T04:07:46.964Z,97.20
2023-05-18T04:10:14.532Z,97.20
2023-05-18T04:12:47.742Z,97.20
2023-05-18T04:15:18.405Z,97.10
2023-05-18T04:17:51.451Z,97.10
2023-05-18T04:20:19.521Z,97.10
2023-05-18T04:22:48.922Z,97.10
2023-05-18T04:25:17.941Z,97.10
2023-05-18T04:27:55.098Z,97.20
2023-05-18T04:30:23.999Z,97.30
2023-05-18T04:32:51.714Z,97.30
2023-05-18T04:35:19.536Z,97.40
2023-05-18T04:37:46.513Z,97.40
2023-05-18T04:40:18.234Z,97.50
2023-05-18T04:42:50.630Z,97.50
2023-05-18T04:45:22.147Z,97.50
2023-05-18T04:47:54.213Z,97.60
2023-05-18T04:50:23.810Z,97.60
2023-05-18T04:52:52.714Z,97.60
2023-05-18T04:55:29.176Z,97.50
2023-05-18T04:58:10.393Z,97.50
2023-05-18T05:00:38.898Z,97.50
2023-05-18T05:03:07.764Z,97.50
2023-05-18T05:05:35.545Z,97.50
2023-05-18T05:08:06.930Z,97.40
2023-05-18T05:10:35.796Z,97.30
2023-05-18T05:13:05.242Z,97.30
2023-05-18T05:15:38.795Z,97.20
2023-05-18T05:18:05.919Z,97.20
2023-05-18T05:20:32.839Z,97.20
2023-05-18T05:22:59.923Z,97.20
2023-05-18T05:25:27.663Z,97.20
2023-05-18T05:27:54.686Z,97.10
2023-05-18T05:30:22.278Z,97.10
2023-05-18T05:32:49.301Z,97.10
2023-05-18T05:35:16.455Z,97.10
2023-05-18T05:37:44.733Z,97.10
2023-05-18T05:40:12.049Z,97.00
2023-05-18T05:42:44.267Z,97.00
2023-05-18T05:45:12.394Z,96.80
2023-05-18T05:47:45.930Z,96.80
2023-05-18T05:50:18.929Z,96.80
2023-05-18T05:52:50.062Z,96.80
2023-05-18T05:55:18.535Z,96.70
2023-05-18T05:57:45.544Z,96.70
2023-05-18T06:00:15.329Z,96.70
2023-05-18T06:02:48.953Z,96.60
2023-05-18T06:05:21.936Z,96.80
2023-05-18T06:07:49.486Z,96.60
2023-05-18T06:10:18.326Z,96.60
2023-05-18T06:12:45.404Z,96.50
2023-05-18T06:15:12.543Z,96.40
2023-05-18T06:17:40.977Z,96.40
2023-05-18T06:20:11.495Z,96.30
2023-05-18T06:22:39.145Z,96.30
2023-05-18T06:25:26.783Z,96.30
2023-05-18T06:28:10.625Z,96.40
2023-05-18T06:31:01.799Z,96.30
2023-05-18T06:33:42.670Z,96.20
2023-05-18T06:36:12.142Z,96.30
2023-05-18T06:38:39.066Z,96.30
2023-05-18T06:41:12.054Z,96.30
2023-05-18T06:43:41.798Z,96.40
2023-05-18T06:46:26.917Z,96.40
2023-05-18T06:49:01.335Z,96.30
2023-05-18T06:51:28.715Z,96.10
2023-05-18T06:53:59.971Z,95.80
2023-05-18T06:56:29.592Z,95.70
2023-05-18T06:58:58.894Z,95.70
2023-05-18T07:01:27.200Z,95.60
2023-05-18T07:03:58.139Z,95.50
2023-05-18T07:06:25.362Z,95.50
2023-05-18T07:08:52.332Z,95.40
2023-05-18T07:11:29.642Z,95.60
2023-05-18T07:13:56.902Z,95.10
2023-05-18T07:16:23.843Z,94.50
2023-05-18T07:18:50.892Z,94.20
2023-05-18T07:21:20.871Z,93.40
2023-05-18T07:23:47.891Z,93.10
2023-05-18T07:26:15.068Z,92.60
2023-05-18T07:28:42.760Z,92.40
2023-05-18T07:31:09.773Z,92.00
2023-05-18T07:33:38.537Z,91.30
2023-05-18T07:36:06.806Z,90.80
2023-05-18T07:38:34.008Z,90.80
2023-05-18T07:41:01.044Z,90.10
2023-05-18T07:43:28.094Z,90.00
2023-05-18T07:45:57.259Z,89.60
2023-05-18T07:48:24.330Z,89.50
2023-05-18T07:50:51.690Z,89.30
2023-05-18T07:53:21.193Z,88.90
2023-05-18T07:55:52.641Z,88.20
2023-05-18T07:58:19.652Z,87.70
2023-05-18T08:00:46.589Z,87.50
2023-05-18T08:03:16.210Z,87.20
2023-05-18T08:05:43.479Z,86.60
2023-05-18T08:08:11.979Z,85.20
2023-05-18T08:10:41.709Z,84.30
2023-05-18T08:13:11.188Z,84.50
2023-05-18T08:15:40.987Z,84.40
2023-05-18T08:18:08.248Z,83.00
2023-05-18T08:20:37.401Z,82.10
2023-05-18T08:23:04.395Z,80.90
2023-05-18T08:25:31.469Z,80.10
2023-05-18T08:27:58.653Z,79.20
2023-05-18T08:30:26.815Z,78.00
2023-05-18T08:32:59.719Z,79.10
2023-05-18T08:35:26.717Z,80.00
2023-05-18T08:37:55.199Z,79.80
2023-05-18T08:40:23.603Z,79.40
2023-05-18T08:43:22.630Z,78.70
2023-05-18T08:45:59.946Z,78.30
2023-05-18T08:48:28.547Z,77.10
2023-05-18T08:50:58.431Z,77.30
2023-05-18T08:53:25.988Z,78.00
2023-05-18T08:55:54.565Z,78.00
2023-05-18T08:58:32.562Z,78.00
2023-05-18T09:01:03.967Z,78.60
2023-05-18T09:03:32.490Z,77.50
2023-05-18T09:06:01.034Z,77.00
2023-05-18T09:08:29.349Z,74.70
2023-05-18T09:10:59.927Z,75.00
2023-05-18T09:13:30.150Z,75.40
2023-05-18T09:15:59.420Z,76.10
2023-05-18T09:18:28.360Z,74.00
2023-05-18T09:20:56.148Z,73.40
2023-05-18T09:23:23.871Z,73.00
2023-05-18T09:25:52.962Z,72.50
2023-05-18T09:28:28.447Z,72.70
2023-05-18T09:30:55.915Z,71.30
2023-05-18T09:33:23.368Z,72.50
2023-05-18T09:35:51.865Z,71.10
2023-05-18T09:38:22.767Z,70.60
2023-05-18T09:40:52.278Z,69.80
2023-05-18T09:43:21.177Z,68.60
2023-05-18T09:45:49.590Z,69.70
2023-05-18T09:48:19.301Z,69.90
2023-05-18T09:50:46.675Z,68.10
2023-05-18T09:53:14.648Z,69.90
2023-05-18T09:55:51.458Z,70.60
2023-05-18T09:58:18.493Z,70.90
2023-05-18T10:00:52.168Z,71.20
2023-05-18T10:03:25.677Z,71.40
2023-05-18T10:05:54.143Z,67.60
2023-05-18T10:08:22.580Z,68.00
2023-05-18T10:10:50.079Z,68.60
2023-05-18T10:13:21.060Z,68.30
2023-05-18T10:15:54.306Z,68.20
2023-05-18T10:18:30.030Z,69.50
2023-05-18T10:21:01.850Z,69.50
2023-05-18T10:23:31.971Z,70.60
2023-05-18T10:25:59.425Z,69.50
2023-05-18T10:28:38.018Z,69.30
2023-05-18T10:31:08.347Z,70.30
2023-05-18T10:33:37.966Z,70.50
2023-05-18T10:36:08.629Z,68.50
2023-05-18T10:38:38.770Z,68.80
2023-05-18T10:41:06.466Z,67.20
2023-05-18T10:43:34.446Z,65.20
2023-05-18T10:46:04.894Z,64.10
2023-05-18T10:48:31.872Z,64.50
2023-05-18T10:51:05.576Z,66.10
2023-05-18T10:53:33.478Z,66.20
2023-05-18T10:56:01.143Z,66.80
2023-05-18T10:58:32.053Z,66.70
2023-05-18T11:01:05.423Z,66.80
2023-05-18T11:03:33.346Z,67.20
2023-05-18T11:06:27.440Z,66.20
2023-05-18T11:08:54.617Z,67.10
2023-05-18T11:11:28.237Z,67.50
2023-05-18T11:13:59.390Z,66.80
2023-05-18T11:16:43.329Z,67.30
2023-05-18T11:19:12.554Z,67.60
2023-05-18T11:21:41.662Z,64.50
2023-05-18T11:24:18.261Z,65.10
2023-05-18T11:26:47.636Z,63.70
2023-05-18T11:29:35.127Z,65.30
2023-05-18T11:32:04.895Z,67.10
2023-05-18T11:34:45.233Z,66.80
2023-05-18T11:37:17.503Z,67.10
2023-05-18T11:39:59.744Z,67.80
2023-05-18T11:42:34.986Z,68.10
2023-05-18T11:45:12.179Z,68.10
2023-05-18T11:47:43.084Z,67.70
2023-05-18T11:50:12.222Z,65.80
2023-05-18T11:52:54.629Z,66.30
2023-05-18T11:55:21.922Z,67.30
2023-05-18T11:57:55.467Z,68.20
2023-05-18T12:00:24.958Z,66.60
2023-05-18T12:02:52.693Z,64.90
2023-05-18T12:05:20.217Z,64.60
2023-05-18T12:07:54.063Z,64.60
2023-05-18T12:10:21.929Z,64.30
2023-05-18T12:12:54.911Z,63.80
2023-05-18T12:15:25.300Z,65.50
2023-05-18T12:17:52.457Z,66.00
2023-05-18T12:20:21.589Z,66.60
2023-05-18T12:22:53.255Z,66.80
2023-05-18T12:25:22.101Z,65.60
2023-05-18T12:27:49.949Z,67.30
2023-05-18T12:30:23.949Z,66.80
2023-05-18T12:32:55.190Z,66.50
2023-05-18T12:35:26.903Z,66.40
2023-05-18T12:38:00.226Z,65.40
2023-05-18T12:40:46.515Z,64.50
2023-05-18T12:43:13.734Z,65.40
2023-05-18T12:45:44.357Z,64.20
2023-05-18T12:48:12.657Z,62.70
2023-05-18T12:50:54.202Z,63.50
2023-05-18T12:53:21.293Z,65.00
2023-05-18T12:56:01.124Z,65.50
2023-05-18T12:58:30.464Z,66.10
2023-05-18T13:00:57.372Z,66.50
2023-05-18T13:03:24.608Z,65.00
2023-05-18T13:06:11.256Z,65.70
2023-05-18T13:08:40.702Z,66.80
2023-05-18T13:11:14.792Z,65.20
2023-05-18T13:13:58.248Z,65.20
2023-05-18T13:16:25.718Z,65.40
2023-05-18T13:19:04.499Z,64.70
2023-05-18T13:21:31.592Z,64.50
2023-05-18T13:23:58.601Z,65.30
2023-05-18T13:26:25.792Z,63.70
2023-05-18T13:28:57.707Z,63.00
2023-05-18T13:31:25.376Z,64.10
2023-05-18T13:33:52.794Z,65.00
2023-05-18T13:36:23.538Z,64.30
2023-05-18T13:38:53.309Z,64.40
2023-05-18T13:41:21.303Z,64.20
2023-05-18T13:43:48.361Z,62.90
2023-05-18T13:46:22.825Z,63.10
2023-05-18T13:48:50.097Z,63.30
2023-05-18T13:51:17.061Z,63.20
2023-05-18T13:53:44.478Z,64.00
2023-05-18T13:56:11.716Z,64.40
2023-05-18T13:58:44.679Z,65.10
2023-05-18T14:01:13.844Z,60.70
2023-05-18T14:03:40.994Z,61.50
2023-05-18T14:06:08.440Z,62.60
2023-05-18T14:08:35.440Z,62.60
2023-05-18T14:11:02.397Z,63.00
2023-05-18T14:13:29.326Z,62.30
2023-05-18T14:15:57.742Z,60.60
2023-05-18T14:18:24.617Z,60.90
2023-05-18T14:20:51.657Z,61.90
2023-05-18T14:23:18.538Z,61.70
2023-05-18T14:25:53.203Z,62.40
2023-05-18T14:28:22.775Z,61.30
2023-05-18T14:30:55.140Z,62.10
2023-05-18T14:33:26.512Z,61.30
2023-05-18T14:35:57.107Z,59.30
2023-05-18T14:38:26.926Z,61.10
2023-05-18T14:40:59.118Z,59.50
2023-05-18T14:43:26.110Z,60.50
2023-05-18T14:46:04.283Z,60.70
2023-05-18T14:48:35.428Z,61.20
2023-05-18T14:51:02.414Z,62.60
2023-05-18T14:53:31.624Z,63.10
2023-05-18T14:56:06.874Z,63.40
2023-05-18T14:58:36.473Z,62.40
2023-05-18T15:01:03.584Z,62.40
2023-05-18T15:03:30.751Z,62.60
2023-05-18T15:06:00.068Z,63.50
2023-05-18T15:08:28.203Z,62.80
2023-05-18T15:10:55.533Z,62.60
2023-05-18T15:13:25.067Z,62.70
2023-05-18T15:15:52.173Z,62.00
2023-05-18T15:18:22.377Z,62.00
2023-05-18T15:20:52.395Z,62.80
2023-05-18T15:23:19.366Z,64.30
2023-05-18T15:25:46.774Z,64.40
2023-05-18T15:28:13.861Z,64.80
2023-05-18T15:30:40.956Z,65.50
2023-05-18T15:33:10.462Z,65.90
2023-05-18T15:35:38.705Z,66.10
2023-05-18T15:38:08.435Z,66.00
2023-05-18T15:40:35.610Z,66.20
2023-05-18T15:43:02.741Z,66.00
2023-05-18T15:45:32.849Z,66.40
2023-05-18T15:48:03.542Z,65.20
2023-05-18T15:50:30.722Z,65.10
2023-05-18T15:52:57.810Z,65.20
2023-05-18T15:55:24.824Z,64.90
2023-05-18T15:57:54.737Z,64.80
2023-05-18T16:00:23.794Z,66.00
2023-05-18T16:02:51.200Z,66.50
2023-05-18T16:05:18.217Z,66.90
2023-05-18T16:07:48.058Z,67.10
2023-05-18T16:10:15.043Z,66.50
2023-05-18T16:12:41.949Z,66.70
2023-05-18T16:15:14.446Z,67.20
2023-05-18T16:17:41.658Z,67.30
2023-05-18T16:20:09.195Z,67.50
2023-05-18T16:22:36.201Z,68.10
2023-05-18T16:25:03.455Z,68.40
2023-05-18T16:27:30.448Z,69.10
2023-05-18T16:29:57.400Z,69.80
2023-05-18T16:32:24.800Z,70.10
2023-05-18T16:34:54.624Z,70.50
2023-05-18T16:37:24.253Z,70.70
2023-05-18T16:39:51.283Z,71.00
2023-05-18T16:42:22.359Z,71.40
2023-05-18T16:44:49.359Z,71.80
2023-05-18T16:47:19.338Z,71.80
2023-05-18T16:49:46.291Z,72.10
2023-05-18T16:52:15.674Z,72.50
2023-05-18T16:54:42.702Z,72.70
2023-05-18T16:57:12.987Z,72.50
2023-05-18T16:59:47.496Z,72.70
2023-05-18T17:02:16.664Z,72.90
2023-05-18T17:04:49.879Z,72.90
2023-05-18T17:07:17.310Z,73.10
2023-05-18T17:09:44.684Z,73.40
2023-05-18T17:12:12.643Z,73.70
2023-05-18T17:14:39.881Z,74.00
2023-05-18T17:17:10.188Z,74.30
2023-05-18T17:19:39.335Z,74.90
2023-05-18T17:22:11.569Z,75.60
2023-05-18T17:24:38.824Z,75.90
2023-05-18T17:27:06.529Z,76.60
2023-05-18T17:29:33.657Z,77.30
2023-05-18T17:32:04.373Z,77.60
2023-05-18T17:34:33.832Z,77.30
2023-05-18T17:37:02.508Z,77.40
2023-05-18T17:39:31.363Z,77.80
2023-05-18T17:42:01.758Z,78.10
2023-05-18T17:44:28.855Z,78.80
2023-05-18T17:46:57.000Z,79.70
2023-05-18T17:49:24.248Z,80.30
2023-05-18T17:51:52.399Z,80.70
2023-05-18T17:54:22.413Z,80.80
2023-05-18T17:56:49.406Z,80.50
2023-05-18T17:59:16.394Z,80.50
2023-05-18T18:01:43.417Z,81.40
2023-05-18T18:04:10.664Z,81.30
2023-05-18T18:06:38.802Z,81.60
2023-05-18T18:09:05.922Z,81.70
2023-05-18T18:11:35.125Z,81.80
2023-05-18T18:14:06.096Z,81.50
2023-05-18T18:16:34.601Z,81.60
2023-05-18T18:19:02.873Z,81.90
2023-05-18T18:21:30.014Z,82.20
2023-05-18T18:24:02.796Z,82.50
2023-05-18T18:26:32.307Z,82.90
2023-05-18T18:28:59.313Z,83.30
2023-05-18T18:31:26.303Z,83.80
2023-05-18T18:33:53.318Z,84.20
2023-05-18T18:36:20.599Z,84.30
2023-05-18T18:38:47.589Z,84.40
2023-05-18T18:41:17.441Z,84.70
2023-05-18T18:43:44.867Z,84.90
2023-05-18T18:46:12.203Z,84.90
2023-05-18T18:48:39.316Z,85.20
2023-05-18T18:51:06.443Z,85.60
2023-05-18T18:53:35.725Z,85.80
2023-05-18T18:56:02.897Z,86.30
2023-05-18T18:58:29.803Z,86.70
2023-05-18T19:01:00.288Z,87.10
2023-05-18T19:03:27.476Z,87.50
2023-05-18T19:05:54.525Z,88.00
2023-05-18T19:08:23.756Z,88.30
2023-05-18T19:10:50.724Z,88.50
2023-05-18T19:13:17.842Z,88.70
2023-05-18T19:15:50.356Z,88.80
2023-05-18T19:18:20.085Z,88.90
2023-05-18T19:20:47.098Z,89.10
2023-05-18T19:23:14.545Z,89.40
2023-05-18T19:25:42.021Z,89.60
2023-05-18T19:28:08.994Z,89.80
2023-05-18T19:30:35.997Z,90.00
2023-05-18T19:33:05.161Z,90.00
2023-05-18T19:35:32.708Z,90.20
2023-05-18T19:38:02.411Z,90.30
2023-05-18T19:40:29.571Z,90.40
2023-05-18T19:42:59.610Z,90.50
2023-05-18T19:45:29.641Z,90.60
2023-05-18T19:48:01.568Z,90.80
2023-05-18T19:50:28.877Z,90.90
2023-05-18T19:52:59.720Z,90.90
2023-05-18T19:55:28.606Z,91.00
2023-05-18T19:57:55.683Z,91.10
2023-05-18T20:00:23.774Z,91.20
2023-05-18T20:02:50.781Z,91.40
2023-05-18T20:05:20.031Z,91.50
2023-05-18T20:07:46.974Z,91.60
2023-05-18T20:10:14.084Z,91.70
2023-05-18T20:12:41.276Z,91.80
2023-05-18T20:15:14.489Z,91.90
2023-05-18T20:17:43.780Z,92.00
2023-05-18T20:20:11.496Z,92.10
2023-05-18T20:22:39.094Z,92.20
2023-05-18T20:25:09.631Z,92.40
2023-05-18T20:27:39.154Z,92.50
2023-05-18T20:30:07.258Z,92.50
2023-05-18T20:32:34.278Z,92.60
2023-05-18T20:35:03.593Z,92.60
2023-05-18T20:37:30.873Z,92.60
2023-05-18T20:39:57.980Z,92.50
2023-05-18T20:42:30.798Z,92.40
2023-05-18T20:44:59.146Z,92.30
2023-05-18T20:47:26.463Z,92.10
2023-05-18T20:49:53.500Z,91.90
2023-05-18T20:52:22.915Z,91.70
2023-05-18T20:54:50.047Z,91.60
2023-05-18T20:57:17.188Z,91.50
2023-05-18T20:59:44.186Z,91.40
2023-05-18T21:02:11.258Z,91.30
2023-05-18T21:04:39.652Z,91.10
2023-05-18T21:07:06.900Z,91.10
2023-05-18T21:09:34.540Z,91.00
2023-05-18T21:12:02.637Z,90.90
2023-05-18T21:14:32.573Z,90.90
2023-05-18T21:16:59.562Z,90.90
2023-05-18T21:19:27.784Z,90.90
2023-05-18T21:21:54.768Z,90.90
2023-05-18T21:24:23.854Z,90.80
2023-05-18T21:26:51.887Z,90.90
2023-05-18T21:29:23.086Z,90.80
2023-05-18T21:31:50.133Z,90.70
2023-05-18T21:34:17.083Z,90.70
2023-05-18T21:36:44.199Z,90.60
2023-05-18T21:39:11.450Z,90.60
2023-05-18T21:41:42.576Z,90.60
2023-05-18T21:44:09.650Z,90.50
2023-05-18T21:46:37.061Z,90.50
2023-05-18T21:49:08.372Z,90.80
2023-05-18T21:51:36.541Z,90.50
2023-05-18T21:54:05.634Z,90.60
2023-05-18T21:56:36.787Z,90.60
2023-05-18T21:59:03.818Z,90.60
2023-05-18T22:01:30.981Z,90.50
2023-05-18T22:03:58.218Z,90.60
2023-05-18T22:06:25.174Z,90.60
2023-05-18T22:08:52.213Z,90.60
2023-05-18T22:11:19.119Z,90.60
2023-05-18T22:13:48.513Z,90.60
2023-05-18T22:16:15.663Z,90.70
2023-05-18T22:18:45.080Z,90.60
2023-05-18T22:21:15.037Z,90.60
2023-05-18T22:23:42.318Z,90.60
2023-05-18T22:26:12.281Z,90.70
2023-05-18T22:28:39.528Z,90.80
2023-05-18T22:31:06.554Z,91.00
2023-05-18T22:33:33.591Z,91.20
2023-05-18T22:36:00.947Z,91.40
2023-05-18T22:38:27.884Z,91.40
2023-05-18T22:40:54.749Z,91.40
2023-05-18T22:43:22.257Z,91.40
2023-05-18T22:45:49.374Z,91.30
2023-05-18T22:48:18.969Z,91.30
2023-05-18T22:50:46.248Z,91.30
2023-05-18T22:53:13.893Z,91.20
2023-05-18T22:55:41.061Z,91.20
2023-05-18T22:58:08.112Z,91.20
2023-05-18T23:00:35.023Z,91.20
2023-05-18T23:03:02.145Z,91.30
2023-05-18T23:05:29.246Z,91.30
2023-05-18T23:07:58.143Z,91.30
2023-05-18T23:10:26.497Z,91.40
2023-05-18T23:12:56.020Z,91.30
2023-05-18T23:15:23.345Z,91.30
2023-05-18T23:17:50.473Z,91.30
2023-05-18T23:20:19.625Z,91.40
2023-05-18T23:22:46.515Z,91.60
2023-05-18T23:25:13.667Z,91.70
2023-05-18T23:27:40.868Z,91.70
2023-05-18T23:30:08.265Z,91.80
2023-05-18T23:32:36.363Z,91.80
2023-05-18T23:35:05.044Z,92.10
2023-05-18T23:37:33.096Z,92.30
2023-05-18T23:40:02.215Z,92.40
2023-05-18T23:42:29.526Z,92.50
2023-05-18T23:44:58.936Z,92.40
2023-05-18T23:47:26.061Z,92.50
2023-05-18T23:49:53.341Z,92.50
2023-05-18T23:52:23.003Z,92.70
2023-05-18T23:54:53.465Z,92.80
2023-05-18T23:57:21.010Z,92.90
2023-05-18T23:59:48.250Z,92.80
